createdAt,value
2022-10-11T00:02:20.168Z,81.98
2022-10-11T00:04:48.823Z,80.62
2022-10-11T00:07:18.392Z,82.49
2022-10-11T00:09:46.509Z,84.02
2022-10-11T00:12:14.106Z,84.16
2022-10-11T00:14:42.134Z,83.07
2022-10-11T00:17:09.999Z,84.99
2022-10-11T00:19:38.292Z,83.41
2022-10-11T00:22:05.869Z,82.50
2022-10-11T00:24:34.996Z,82.61
2022-10-11T00:27:02.541Z,82.83
2022-10-11T00:29:30.720Z,82.25
2022-10-11T00:31:58.475Z,82.83
2022-10-11T00:34:26.605Z,83.57
2022-10-11T00:36:54.174Z,83.09
2022-10-11T00:39:22.166Z,82.68
2022-10-11T00:41:51.488Z,83.34
2022-10-11T00:44:21.485Z,82.53
2022-10-11T00:46:55.908Z,83.17
2022-10-11T00:49:32.907Z,83.05
2022-10-11T00:52:07.066Z,83.21
2022-10-11T00:54:39.432Z,83.29
2022-10-11T00:57:10.527Z,83.42
2022-10-11T00:59:44.258Z,83.73
2022-10-11T01:02:13.353Z,84.23
2022-10-11T01:04:42.190Z,85.29
2022-10-11T01:07:10.435Z,84.56
2022-10-11T01:09:38.433Z,84.75
2022-10-11T01:12:17.384Z,84.50
2022-10-11T01:15:13.380Z,84.17
2022-10-11T01:17:49.981Z,83.48
2022-10-11T01:20:45.344Z,85.14
2022-10-11T01:23:54.133Z,83.55
2022-10-11T01:26:39.444Z,83.48
2022-10-11T01:29:18.074Z,84.44
2022-10-11T01:31:54.063Z,84.64
2022-10-11T01:34:27.508Z,85.56
2022-10-11T01:37:04.812Z,84.00
2022-10-11T01:39:38.581Z,84.46
2022-10-11T01:42:09.158Z,85.01
2022-10-11T01:44:39.440Z,84.36
2022-10-11T01:47:08.663Z,84.59
2022-10-11T01:49:36.808Z,83.77
2022-10-11T01:52:06.342Z,83.99
2022-10-11T01:55:08.537Z,84.34
2022-10-11T01:57:58.825Z,87.15
2022-10-11T02:00:36.417Z,84.03
2022-10-11T02:03:19.373Z,84.96
2022-10-11T02:05:52.417Z,85.39
2022-10-11T02:08:27.207Z,83.95
2022-10-11T02:11:01.641Z,84.93
2022-10-11T02:13:38.771Z,85.96
2022-10-11T02:16:11.260Z,85.26
2022-10-11T02:18:42.969Z,83.59
2022-10-11T02:21:12.887Z,83.72
2022-10-11T02:23:45.662Z,83.91
2022-10-11T02:26:14.835Z,83.19
2022-10-11T02:28:44.909Z,83.96
2022-10-11T02:31:15.558Z,83.67
2022-10-11T02:33:48.042Z,83.09
2022-10-11T02:36:24.871Z,82.46
2022-10-11T02:38:59.251Z,83.65
2022-10-11T02:41:32.384Z,85.83
2022-10-11T02:44:05.165Z,84.18
2022-10-11T02:46:34.599Z,83.22
2022-10-11T02:49:04.003Z,83.66
2022-10-11T02:51:32.317Z,83.94
2022-10-11T02:54:02.151Z,83.30
2022-10-11T02:56:30.045Z,83.98
2022-10-11T02:58:57.613Z,84.85
2022-10-11T03:01:25.553Z,84.67
2022-10-11T03:03:53.195Z,84.84
2022-10-11T03:06:22.757Z,85.87
2022-10-11T03:08:50.818Z,86.28
2022-10-11T03:11:18.589Z,84.82
2022-10-11T03:13:46.256Z,84.76
2022-10-11T03:16:14.278Z,85.50
2022-10-11T03:18:42.509Z,85.32
2022-10-11T03:21:10.562Z,85.52
2022-10-11T03:23:39.938Z,86.35
2022-10-11T03:26:08.562Z,86.50
2022-10-11T03:28:37.515Z,86.64
2022-10-11T03:31:05.420Z,86.16
2022-10-11T03:33:33.040Z,85.96
2022-10-11T03:36:00.628Z,85.97
2022-10-11T03:38:28.447Z,86.28
2022-10-11T03:40:57.517Z,87.80
2022-10-11T03:43:25.120Z,87.36
2022-10-11T03:45:52.855Z,86.60
2022-10-11T03:48:23.289Z,85.85
2022-10-11T03:50:51.360Z,84.35
2022-10-11T03:53:19.263Z,85.23
2022-10-11T03:55:46.886Z,84.67
2022-10-11T03:58:15.900Z,84.81
2022-10-11T04:00:43.731Z,86.57
2022-10-11T04:03:11.423Z,85.58
2022-10-11T04:05:39.535Z,83.84
2022-10-11T04:08:11.221Z,84.05
2022-10-11T04:10:41.212Z,84.11
2022-10-11T04:13:10.140Z,85.39
2022-10-11T04:15:39.688Z,86.06
2022-10-11T04:18:08.227Z,85.68
2022-10-11T04:20:38.420Z,84.56
2022-10-11T04:23:06.034Z,84.51
2022-10-11T04:25:33.889Z,84.53
2022-10-11T04:28:01.995Z,84.75
2022-10-11T04:30:30.229Z,86.67
2022-10-11T04:32:59.271Z,86.48
2022-10-11T04:35:27.695Z,88.42
2022-10-11T04:37:55.436Z,88.03
2022-10-11T04:40:23.179Z,88.25
2022-10-11T04:42:50.805Z,88.41
2022-10-11T04:45:18.664Z,89.31
2022-10-11T04:47:47.141Z,89.36
2022-10-11T04:50:16.505Z,89.13
2022-10-11T04:52:44.220Z,88.62
2022-10-11T04:55:12.165Z,88.74
2022-10-11T04:57:40.136Z,88.77
2022-10-11T05:00:08.984Z,89.66
2022-10-11T05:02:37.112Z,90.81
2022-10-11T05:05:06.035Z,91.43
2022-10-11T05:07:36.988Z,91.30
2022-10-11T05:10:05.580Z,90.85
2022-10-11T05:12:33.863Z,90.56
2022-10-11T05:15:01.812Z,90.26
2022-10-11T05:17:29.561Z,89.91
2022-10-11T05:19:57.075Z,89.61
2022-10-11T05:22:24.892Z,89.30
2022-10-11T05:24:53.936Z,89.09
2022-10-11T05:27:21.687Z,88.46
2022-10-11T05:29:50.016Z,89.05
2022-10-11T05:32:17.793Z,89.13
2022-10-11T05:34:46.095Z,89.33
2022-10-11T05:37:13.813Z,89.52
2022-10-11T05:39:41.530Z,89.96
2022-10-11T05:42:11.183Z,90.31
2022-10-11T05:44:38.863Z,91.06
2022-10-11T05:47:06.631Z,90.83
2022-10-11T05:49:34.224Z,90.45
2022-10-11T05:52:01.792Z,89.09
2022-10-11T05:54:30.350Z,88.34
2022-10-11T05:56:57.891Z,88.09
2022-10-11T05:59:26.924Z,88.16
2022-10-11T06:01:54.851Z,87.41
2022-10-11T06:04:24.018Z,87.79
2022-10-11T06:06:52.665Z,86.67
2022-10-11T06:09:20.440Z,86.40
2022-10-11T06:11:48.274Z,85.41
2022-10-11T06:14:16.785Z,84.29
2022-10-11T06:16:45.848Z,84.25
2022-10-11T06:19:16.301Z,83.40
2022-10-11T06:21:43.887Z,83.42
2022-10-11T06:24:12.789Z,82.81
2022-10-11T06:26:41.501Z,81.51
2022-10-11T06:29:09.347Z,81.29
2022-10-11T06:31:37.192Z,80.75
2022-10-11T06:34:06.408Z,79.72
2022-10-11T06:36:34.166Z,80.38
2022-10-11T06:39:02.162Z,78.36
2022-10-11T06:41:30.819Z,75.29
2022-10-11T06:43:59.123Z,74.31
2022-10-11T06:46:28.277Z,75.28
2022-10-11T06:48:56.144Z,74.92
2022-10-11T06:51:25.553Z,74.36
2022-10-11T06:53:56.579Z,73.15
2022-10-11T06:56:25.765Z,74.35
2022-10-11T06:58:53.665Z,73.49
2022-10-11T07:01:21.959Z,72.13
2022-10-11T07:03:50.786Z,70.89
2022-10-11T07:06:21.979Z,70.63
2022-10-11T07:08:51.389Z,69.58
2022-10-11T07:11:21.312Z,68.74
2022-10-11T07:13:51.755Z,70.22
2022-10-11T07:16:21.113Z,69.60
2022-10-11T07:18:59.559Z,68.12
2022-10-11T07:21:29.225Z,67.33
2022-10-11T07:23:58.994Z,67.30
2022-10-11T07:26:26.779Z,68.12
2022-10-11T07:28:54.696Z,67.71
2022-10-11T07:31:26.686Z,67.14
2022-10-11T07:33:54.506Z,63.46
2022-10-11T07:36:23.422Z,64.59
2022-10-11T07:38:51.735Z,63.28
2022-10-11T07:41:21.199Z,61.13
2022-10-11T07:43:48.967Z,63.15
2022-10-11T07:46:17.531Z,62.98
2022-10-11T07:48:48.580Z,61.22
2022-10-11T07:51:19.546Z,58.67
2022-10-11T07:53:48.836Z,57.84
2022-10-11T07:56:18.575Z,59.25
2022-10-11T07:58:51.016Z,59.15
2022-10-11T08:01:19.668Z,57.25
2022-10-11T08:03:47.800Z,56.41
2022-10-11T08:06:18.220Z,55.20
2022-10-11T08:08:45.961Z,57.01
2022-10-11T08:11:21.437Z,56.37
2022-10-11T08:13:52.634Z,54.97
2022-10-11T08:16:21.013Z,54.63
2022-10-11T08:18:48.968Z,56.90
2022-10-11T08:21:18.568Z,57.71
2022-10-11T08:23:46.286Z,53.04
2022-10-11T08:26:14.344Z,56.90
2022-10-11T08:28:42.134Z,54.01
2022-10-11T08:31:15.837Z,51.79
2022-10-11T08:33:43.904Z,51.66
2022-10-11T08:36:12.753Z,52.86
2022-10-11T08:38:40.986Z,53.49
2022-10-11T08:41:30.077Z,50.96
2022-10-11T08:44:10.785Z,52.21
2022-10-11T08:46:44.594Z,53.56
2022-10-11T08:49:13.955Z,51.56
2022-10-11T08:51:45.424Z,51.41
2022-10-11T08:54:20.107Z,49.66
2022-10-11T08:56:49.578Z,49.71
2022-10-11T08:59:30.141Z,49.34
2022-10-11T09:02:09.629Z,51.69
2022-10-11T09:04:37.456Z,51.97
2022-10-11T09:07:17.326Z,49.18
2022-10-11T09:10:01.411Z,48.87
2022-10-11T09:12:41.000Z,49.25
2022-10-11T09:15:24.691Z,48.71
2022-10-11T09:18:15.386Z,47.46
2022-10-11T09:20:52.862Z,51.14
2022-10-11T09:23:37.908Z,47.36
2022-10-11T09:26:11.516Z,45.78
2022-10-11T09:28:50.889Z,49.32
2022-10-11T09:31:18.996Z,48.13
2022-10-11T09:33:50.475Z,45.67
2022-10-11T09:36:25.804Z,45.93
2022-10-11T09:39:06.521Z,44.61
2022-10-11T09:41:38.626Z,45.35
2022-10-11T09:44:07.318Z,45.33
2022-10-11T09:46:37.858Z,45.63
2022-10-11T09:49:12.284Z,45.72
2022-10-11T09:51:43.761Z,47.60
2022-10-11T09:54:11.596Z,46.56
2022-10-11T09:56:43.460Z,46.64
2022-10-11T09:59:26.745Z,45.62
2022-10-11T10:02:19.515Z,46.09
2022-10-11T10:05:18.051Z,45.91
2022-10-11T10:08:05.850Z,46.07
2022-10-11T10:10:37.557Z,46.27
2022-10-11T10:13:21.367Z,45.63
2022-10-11T10:15:55.549Z,45.22
2022-10-11T10:18:30.199Z,45.75
2022-10-11T10:21:00.232Z,46.85
2022-10-11T10:23:30.487Z,45.71
2022-10-11T10:26:13.519Z,46.29
2022-10-11T10:28:55.431Z,45.76
2022-10-11T10:31:25.489Z,45.29
2022-10-11T10:33:56.006Z,46.00
2022-10-11T10:36:28.976Z,46.12
2022-10-11T10:39:04.988Z,46.79
2022-10-11T10:41:32.845Z,45.51
2022-10-11T10:44:01.045Z,46.87
2022-10-11T10:46:47.054Z,44.86
2022-10-11T10:49:53.115Z,45.42
2022-10-11T10:52:33.537Z,46.32
2022-10-11T10:55:23.467Z,43.09
2022-10-11T10:58:21.274Z,43.60
2022-10-11T11:00:53.849Z,42.80
2022-10-11T11:03:26.618Z,44.94
2022-10-11T11:06:01.908Z,43.49
2022-10-11T11:08:51.169Z,43.04
2022-10-11T11:11:35.153Z,44.87
2022-10-11T11:14:12.737Z,44.54
2022-10-11T11:16:47.955Z,44.85
2022-10-11T11:19:30.162Z,43.51
2022-10-11T11:22:03.757Z,45.55
2022-10-11T11:24:44.541Z,46.37
2022-10-11T11:27:26.378Z,45.22
2022-10-11T11:30:03.364Z,42.84
2022-10-11T11:32:45.831Z,45.80
2022-10-11T11:35:26.681Z,45.30
2022-10-11T11:38:06.059Z,44.16
2022-10-11T11:40:39.285Z,45.09
2022-10-11T11:43:13.761Z,43.03
2022-10-11T11:45:48.677Z,42.29
2022-10-11T11:48:19.432Z,42.67
2022-10-11T11:50:53.504Z,42.11
2022-10-11T11:53:31.628Z,43.66
2022-10-11T11:56:05.107Z,44.59
2022-10-11T11:58:39.518Z,44.01
2022-10-11T12:01:18.863Z,44.01
2022-10-11T12:03:52.346Z,43.72
2022-10-11T12:06:28.666Z,42.73
2022-10-11T12:09:05.272Z,42.68
2022-10-11T12:11:51.304Z,40.94
2022-10-11T12:14:38.578Z,43.67
2022-10-11T12:17:14.212Z,40.55
2022-10-11T12:20:01.496Z,43.96
2022-10-11T12:23:00.601Z,44.25
2022-10-11T12:25:38.139Z,41.28
2022-10-11T12:28:39.113Z,40.93
2022-10-11T12:31:19.193Z,39.71
2022-10-11T12:33:53.593Z,38.47
2022-10-11T12:36:39.065Z,38.42
2022-10-11T12:39:46.604Z,40.14
2022-10-11T12:42:28.068Z,39.53
2022-10-11T12:45:30.937Z,38.66
2022-10-11T12:48:17.473Z,39.82
2022-10-11T12:51:03.214Z,42.77
2022-10-11T12:54:08.223Z,41.38
2022-10-11T12:56:48.612Z,39.12
2022-10-11T12:59:21.372Z,40.09
2022-10-11T13:01:52.472Z,40.37
2022-10-11T13:04:30.468Z,41.45
2022-10-11T13:07:06.429Z,41.76
2022-10-11T13:09:39.104Z,41.81
2022-10-11T13:12:11.755Z,44.50
2022-10-11T13:14:45.894Z,43.39
2022-10-11T13:17:17.224Z,40.16
2022-10-11T13:19:46.381Z,39.80
2022-10-11T13:22:18.599Z,42.68
2022-10-11T13:24:46.328Z,38.90
2022-10-11T13:27:21.289Z,40.11
2022-10-11T13:29:50.907Z,40.44
2022-10-11T13:32:21.617Z,39.76
2022-10-11T13:37:26.323Z,41.63
2022-10-11T13:39:55.335Z,39.67
2022-10-11T13:42:28.357Z,43.28
2022-10-11T13:44:57.147Z,43.35
2022-10-11T13:47:28.075Z,41.73
2022-10-11T13:50:08.856Z,49.83
2022-10-11T13:52:36.648Z,52.83
2022-10-11T13:55:21.808Z,54.80
2022-10-11T13:57:51.102Z,54.49
2022-10-11T14:00:24.465Z,55.07
2022-10-11T14:02:57.530Z,55.73
2022-10-11T14:05:30.622Z,56.13
2022-10-11T14:08:00.926Z,56.57
2022-10-11T14:10:31.073Z,56.85
2022-10-11T14:13:07.061Z,57.59
2022-10-11T14:15:36.877Z,57.83
2022-10-11T14:18:36.871Z,57.79
2022-10-11T14:21:30.143Z,58.41
2022-10-11T14:23:59.779Z,59.17
2022-10-11T14:26:32.920Z,59.30
2022-10-11T14:29:02.778Z,59.33
2022-10-11T14:31:32.001Z,60.04
2022-10-11T14:33:59.804Z,59.54
2022-10-11T14:36:28.894Z,60.42
2022-10-11T14:38:57.791Z,60.65
2022-10-11T14:41:26.368Z,60.72
2022-10-11T14:43:54.271Z,60.87
2022-10-11T14:46:24.681Z,60.21
2022-10-11T14:48:55.836Z,61.04
2022-10-11T14:51:29.523Z,62.67
2022-10-11T14:53:58.652Z,62.48
2022-10-11T14:56:26.515Z,61.83
2022-10-11T14:58:54.162Z,62.17
2022-10-11T15:01:22.180Z,62.67
2022-10-11T15:03:50.076Z,63.14
2022-10-11T15:06:20.561Z,63.45
2022-10-11T15:08:48.446Z,64.49
2022-10-11T15:11:19.750Z,64.86
2022-10-11T15:13:47.893Z,64.96
2022-10-11T15:16:18.541Z,66.12
2022-10-11T15:18:47.067Z,66.54
2022-10-11T15:21:14.882Z,66.98
2022-10-11T15:23:42.504Z,67.08
2022-10-11T15:26:11.789Z,67.21
2022-10-11T15:28:41.227Z,66.93
2022-10-11T15:31:09.571Z,68.38
2022-10-11T15:33:38.958Z,68.88
2022-10-11T15:36:08.724Z,69.06
2022-10-11T15:38:36.815Z,69.33
2022-10-11T15:41:04.972Z,70.13
2022-10-11T15:43:32.904Z,70.55
2022-10-11T15:46:02.212Z,71.17
2022-10-11T15:48:30.330Z,71.26
2022-10-11T15:50:58.214Z,72.88
2022-10-11T15:53:27.914Z,73.01
2022-10-11T15:55:57.439Z,73.33
2022-10-11T15:58:28.405Z,74.05
2022-10-11T16:00:57.702Z,74.26
2022-10-11T16:03:29.165Z,74.24
2022-10-11T16:06:03.838Z,74.38
2022-10-11T16:08:32.959Z,75.34
2022-10-11T16:11:01.205Z,75.07
2022-10-11T16:13:28.859Z,74.98
2022-10-11T16:15:57.153Z,75.65
2022-10-11T16:18:26.150Z,76.22
2022-10-11T16:20:53.782Z,76.23
2022-10-11T16:23:22.040Z,75.13
2022-10-11T16:25:58.018Z,75.89
2022-10-11T16:28:26.990Z,76.29
2022-10-11T16:30:55.264Z,76.63
2022-10-11T16:33:22.999Z,78.00
2022-10-11T16:35:52.077Z,77.89
2022-10-11T16:38:19.618Z,78.67
2022-10-11T16:40:47.235Z,78.52
2022-10-11T16:43:15.062Z,78.83
2022-10-11T16:45:43.247Z,80.00
2022-10-11T16:48:10.893Z,81.02
2022-10-11T16:50:39.819Z,79.90
2022-10-11T16:53:09.376Z,80.80
2022-10-11T16:55:39.751Z,81.03
2022-10-11T16:58:07.318Z,81.53
2022-10-11T17:00:38.010Z,81.85
2022-10-11T17:03:05.826Z,82.67
2022-10-11T17:05:36.149Z,82.06
2022-10-11T17:08:05.475Z,80.82
2022-10-11T17:10:37.001Z,82.83
2022-10-11T17:13:04.734Z,83.76
2022-10-11T17:15:33.321Z,82.20
2022-10-11T17:18:02.767Z,82.87
2022-10-11T17:20:30.443Z,83.19
2022-10-11T17:22:58.119Z,83.84
2022-10-11T17:25:26.113Z,85.30
2022-10-11T17:27:57.325Z,83.61
2022-10-11T17:30:25.681Z,84.63
2022-10-11T17:32:53.517Z,85.75
2022-10-11T17:35:21.599Z,85.91
2022-10-11T17:37:49.311Z,87.56
2022-10-11T17:40:17.238Z,85.20
2022-10-11T17:42:44.986Z,85.50
2022-10-11T17:45:14.092Z,85.57
2022-10-11T17:47:42.461Z,86.21
2022-10-11T17:50:10.507Z,86.62
2022-10-11T17:52:38.469Z,87.11
2022-10-11T17:55:06.591Z,84.95
2022-10-11T17:57:35.015Z,85.54
2022-10-11T18:00:04.698Z,87.62
2022-10-11T18:02:33.874Z,88.08
2022-10-11T18:05:01.480Z,87.04
2022-10-11T18:07:29.206Z,87.65
2022-10-11T18:09:56.983Z,87.04
2022-10-11T18:12:24.917Z,86.90
2022-10-11T18:14:52.584Z,87.47
2022-10-11T18:17:21.450Z,86.30
2022-10-11T18:19:50.672Z,86.53
2022-10-11T18:22:18.359Z,86.85
2022-10-11T18:24:46.095Z,85.85
2022-10-11T18:27:13.640Z,86.18
2022-10-11T18:29:41.696Z,87.07
2022-10-11T18:32:09.677Z,87.65
2022-10-11T18:34:37.308Z,87.74
2022-10-11T18:37:06.314Z,87.30
2022-10-11T18:39:34.171Z,87.94
2022-10-11T18:42:01.732Z,85.63
2022-10-11T18:44:30.093Z,87.30
2022-10-11T18:46:58.105Z,86.39
2022-10-11T18:49:25.690Z,86.21
2022-10-11T18:51:53.268Z,86.16
2022-10-11T18:54:22.525Z,86.79
2022-10-11T18:56:50.299Z,86.36
2022-10-11T18:59:18.351Z,87.07
2022-10-11T19:01:46.429Z,86.53
2022-10-11T19:04:16.101Z,86.28
2022-10-11T19:06:45.601Z,85.82
2022-10-11T19:09:15.427Z,85.91
2022-10-11T19:11:49.129Z,85.92
2022-10-11T19:14:21.227Z,86.59
2022-10-11T19:16:52.316Z,87.09
2022-10-11T19:19:21.707Z,87.08
2022-10-11T19:21:50.969Z,87.57
2022-10-11T19:24:20.885Z,88.22
2022-10-11T19:26:50.073Z,86.50
2022-10-11T19:29:19.880Z,86.43
2022-10-11T19:31:49.252Z,87.42
2022-10-11T19:34:17.111Z,88.98
2022-10-11T19:36:45.052Z,89.48
2022-10-11T19:39:14.347Z,88.36
2022-10-11T19:41:42.980Z,87.46
2022-10-11T19:44:13.351Z,88.14
2022-10-11T19:46:51.559Z,88.16
2022-10-11T19:49:22.643Z,89.27
2022-10-11T19:51:50.614Z,89.33
2022-10-11T19:54:18.856Z,90.26
2022-10-11T19:56:47.368Z,88.65
2022-10-11T19:59:16.785Z,89.40
2022-10-11T20:01:49.631Z,89.92
2022-10-11T20:04:51.018Z,88.76
2022-10-11T20:07:08.340Z,92.12
2022-10-11T20:09:36.436Z,91.10
2022-10-11T20:12:04.508Z,90.61
2022-10-11T20:14:33.850Z,89.49
2022-10-11T20:17:03.858Z,89.90
2022-10-11T20:19:31.903Z,90.14
2022-10-11T20:22:00.179Z,90.21
2022-10-11T20:24:28.504Z,88.41
2022-10-11T20:26:56.041Z,88.51
2022-10-11T20:29:24.183Z,89.82
2022-10-11T20:31:53.477Z,87.77
2022-10-11T20:34:21.046Z,88.67
2022-10-11T20:36:49.537Z,87.55
2022-10-11T20:39:17.556Z,87.99
2022-10-11T20:41:45.420Z,88.30
2022-10-11T20:44:12.972Z,88.64
2022-10-11T20:46:40.675Z,90.53
2022-10-11T20:49:13.305Z,88.73
2022-10-11T20:51:42.312Z,88.67
2022-10-11T20:54:11.747Z,89.62
2022-10-11T20:56:40.664Z,89.38
2022-10-11T20:59:08.790Z,88.23
2022-10-11T21:01:38.501Z,88.03
2022-10-11T21:04:08.154Z,89.47
2022-10-11T21:06:38.058Z,89.06
2022-10-11T21:09:05.956Z,88.09
2022-10-11T21:11:33.880Z,88.40
2022-10-11T21:14:03.884Z,88.97
2022-10-11T21:16:32.548Z,89.01
2022-10-11T21:19:02.496Z,88.88
2022-10-11T21:21:30.434Z,89.05
2022-10-11T21:24:01.051Z,89.30
2022-10-11T21:26:29.665Z,89.24
2022-10-11T21:28:58.683Z,89.17
2022-10-11T21:31:31.048Z,90.25
2022-10-11T21:34:01.961Z,91.00
2022-10-11T21:36:30.238Z,91.17
2022-10-11T21:38:59.238Z,90.84
2022-10-11T21:41:27.494Z,90.89
2022-10-11T21:43:54.999Z,91.05
2022-10-11T21:46:41.629Z,90.71
2022-10-11T21:49:12.645Z,90.43
2022-10-11T21:51:40.849Z,91.19
2022-10-11T21:54:10.616Z,91.21
2022-10-11T21:56:38.175Z,91.92
2022-10-11T21:59:08.088Z,92.43
2022-10-11T22:01:39.517Z,91.34
2022-10-11T22:04:07.402Z,91.36
2022-10-11T22:06:35.999Z,91.38
2022-10-11T22:09:03.733Z,91.28
2022-10-11T22:11:33.494Z,91.55
2022-10-11T22:14:04.161Z,92.08
2022-10-11T22:16:33.120Z,92.27
2022-10-11T22:19:03.003Z,91.87
2022-10-11T22:21:31.925Z,92.23
2022-10-11T22:23:59.726Z,91.56
2022-10-11T22:26:30.655Z,92.09
2022-10-11T22:29:00.500Z,91.54
2022-10-11T22:31:30.021Z,92.00
2022-10-11T22:33:59.250Z,91.96
2022-10-11T22:36:27.553Z,92.37
2022-10-11T22:38:56.464Z,92.85
2022-10-11T22:41:24.208Z,92.57
2022-10-11T22:43:52.772Z,92.81
2022-10-11T22:46:21.949Z,93.46
2022-10-11T22:48:49.486Z,93.61
2022-10-11T22:51:17.063Z,93.93
2022-10-11T22:53:45.349Z,93.63
2022-10-11T22:56:13.160Z,93.57
2022-10-11T22:58:41.301Z,94.11
2022-10-11T23:01:10.624Z,94.17
2022-10-11T23:03:40.047Z,94.38
2022-10-11T23:06:08.617Z,94.06
2022-10-11T23:08:36.252Z,93.35
2022-10-11T23:11:05.947Z,92.63
2022-10-11T23:13:34.792Z,93.03
2022-10-11T23:18:40.581Z,92.93
2022-10-11T23:21:10.426Z,92.91
2022-10-11T23:23:37.984Z,92.42
2022-10-11T23:26:08.120Z,92.44
2022-10-11T23:28:36.161Z,92.30
2022-10-11T23:31:08.582Z,92.77
2022-10-11T23:33:36.578Z,91.87
2022-10-11T23:36:06.446Z,91.58
2022-10-11T23:38:34.217Z,91.80
2022-10-11T23:41:01.853Z,92.13
2022-10-11T23:43:29.795Z,92.31
2022-10-11T23:45:57.351Z,92.84
2022-10-11T23:48:25.222Z,93.09
2022-10-11T23:50:52.834Z,92.31
2022-10-11T23:53:22.145Z,92.42
2022-10-11T23:55:49.984Z,92.54
2022-10-11T23:58:17.575Z,92.52
